EDT,Max TemperatureF,Mean TemperatureF,Min TemperatureF,Max Dew PointF,MeanDew PointF,Min DewpointF,Max Humidity, Mean Humidity, Min Humidity, Max Sea Level PressureIn, Mean Sea Level PressureIn, Min Sea Level PressureIn, Max VisibilityMiles, Mean VisibilityMiles, Min VisibilityMiles, Max Wind SpeedMPH, Mean Wind SpeedMPH, Max Gust SpeedMPH,PrecipitationIn, CloudCover, Events, WindDirDegrees
2013-10-1,72,63,55,61,58,54,100,88,63,30.02,29.99,29.91,10,5,0,20,4,25,0.00,4,Fog,224
2013-10-2,75,66,57,63,59,42,94,78,55,30.10,29.99,29.92,10,8,6,14,10,,0.00,4,,256
2013-10-3,71,58,44,55,47,41,90,65,39,30.14,30.07,30.01,10,10,10,9,2,,0.00,5,Rain,75
2013-10-4,70,65,60,66,63,54,100,93,78,30.06,30.01,29.98,10,3,1,8,3,,0.59,8,Rain,166
2013-10-5,64,60,57,61,57,54,100,91,83,30.10,30.06,30.00,10,6,1,13,8,,0.40,8,Rain-Thunderstorm,70
2013-10-6,80,68,57,69,61,56,100,89,64,29.98,29.88,29.69,10,6,1,14,7,,0.86,7,Rain-Thunderstorm,128
2013-10-7,73,60,46,63,51,41,96,80,56,30.07,29.77,29.68,10,8,3,30,13,39,0.44,6,Rain,245
2013-10-8,63,53,44,47,44,42,93,75,52,30.35,30.27,30.09,10,10,10,8,4,,0.01,2,,239
2013-10-9,68,54,39,50,43,37,93,74,37,30.40,30.34,30.27,10,10,10,8,2,,0.01,2,,56
2013-10-10,70,56,42,53,45,37,93,76,36,30.29,30.23,30.16,10,10,9,12,2,,0.00,3,,49
2013-10-11,71,56,43,55,46,39,94,76,42,30.19,30.15,30.12,10,10,8,12,4,,0.00,3,,60
2013-10-12,75,58,42,54,44,39,97,64,30,30.19,30.15,30.11,10,9,4,10,3,,0.00,1,,89
2013-10-13,66,62,57,61,56,40,100,81,46,30.28,30.23,30.15,10,6,1,18,6,22,0.38,8,Rain,212
2013-10-14,62,54,46,55,47,40,94,77,47,30.36,30.32,30.27,10,10,6,12,7,,0.03,4,Rain,331
2013-10-15,69,54,43,55,49,40,93,79,61,30.30,30.13,29.92,10,10,9,10,3,,0.00,6,,135
2013-10-16,68,60,53,61,56,46,94,83,65,29.90,29.83,29.74,10,10,2,18,12,25,0.31,7,Rain,201
2013-10-17,61,54,48,51,48,44,93,81,67,29.89,29.80,29.71,10,9,3,14,8,,0.50,7,Rain,249
2013-10-18,59,52,46,46,43,37,87,74,47,29.91,29.84,29.75,10,10,9,22,15,29,0.00,5,Rain,253
2013-10-19,57,50,42,48,44,39,93,82,62,29.87,29.75,29.66,10,8,2,17,7,25,0.16,7,Rain,250
2013-10-20,55,47,39,45,39,35,93,77,53,29.99,29.91,29.80,10,10,10,13,10,,0.03,4,Fog-Rain,230
2013-10-21,63,54,46,47,43,38,87,67,40,29.96,29.87,29.79,10,10,6,24,11,36,0.11,7,Rain,223
2013-10-22,50,44,39,48,34,26,94,68,46,29.88,29.82,29.76,10,9,4,20,13,30,0.15,5,Rain,267
2013-10-23,46,41,35,37,34,29,87,79,61,29.85,29.77,29.71,10,9,5,13,7,,0.06,6,Rain,277
2013-10-24,46,40,33,34,31,28,89,73,53,30.06,29.91,29.83,10,10,10,24,13,30,0.00,4,Rain,263
2013-10-25,48,40,33,37,34,29,97,75,59,30.22,30.17,30.07,10,9,7,21,9,25,0.00,6,Rain,275
2013-10-26,45,43,41,39,35,27,87,75,53,30.11,29.85,29.76,10,8,3,32,18,45,0.26,8,Rain,227
2013-10-27,48,40,34,36,34,29,93,75,62,30.07,29.99,29.86,10,10,10,17,11,,0.00,6,Rain,263
2013-10-28,46,40,30,37,29,19,76,62,43,30.43,30.25,30.04,10,10,10,17,10,,0.00,4,,4
2013-10-29,48,37,28,34,28,23,88,69,44,30.50,30.42,30.32,10,10,10,9,2,,0.00,6,Rain,81
2013-10-30,57,47,37,40,36,34,89,75,47,30.30,30.21,30.10,10,10,9,9,2,,0.01,5,,77
2013-10-31,66,54,41,57,52,36,96,85,67,30.06,29.73,29.33,10,7,2,25,8,43,0.83,7,Rain,184